»·PEaware :: SWA3517 KSFO-KLAS

SWA3517 :: KSFO-KLAS

FLIGHT INFORMATION

Flight Status: Arrived
Operator:
Southwest Airlines
More flights by this operator :: More flights under this callsign
Pilot: Ron W. (20661)
Aircraft: BOEING 737-800
(B738)
More flights by this aircraft type
Origin: KSFO San Francisco Intl
United States
Destination: KLAS McCarran Intl
United States
More flights between these airports :: More routes between these airports
Route: +SSTIK4 NTELL Q162 ESSAA BTY SUNST4
File this flight plan on PilotEdge
Remarks:
Altitude:
(Current/Filed)
39,000ft
Speed:
(Current/Filed)
520kts
Departed: 01-Oct-18 01:13 PM
Arrived: 01-Oct-18 02:22 PM
Distance/Time
Traveled:
1nm/1:08
Distance/Time
To Go:
Arrived

Flight Plot

Page will automatically refresh every two minutes.

Flight plan parsing failed; only flown route is shown


Map Options




Map Legend


Flown Route
Filed Route
Departure Airport
Arrival Airport
Navaid (VOR, NDB)
Fix

Horizontal Profiles

Position Reports

Time Latitude Longitude Heading Altitude Ground
Speed
01-Oct-18 12:46 37.612627 -122.384667 4 21ft 0kts
01-Oct-18 12:47 37.612627 -122.384667 4 21ft 0kts
01-Oct-18 12:48 37.612627 -122.384667 4 21ft 0kts
01-Oct-18 12:49 37.612627 -122.384667 4 21ft 0kts
01-Oct-18 12:50 37.612627 -122.384667 4 21ft 0kts
01-Oct-18 12:51 37.612627 -122.384667 4 21ft 0kts
01-Oct-18 12:52 37.612627 -122.384667 4 21ft 0kts
01-Oct-18 12:53 37.612627 -122.384667 4 21ft 0kts
01-Oct-18 12:54 37.612627 -122.384667 4 21ft 0kts
01-Oct-18 12:55 37.612627 -122.384667 4 21ft 0kts
01-Oct-18 12:56 37.612627 -122.384667 4 21ft 0kts
01-Oct-18 12:57 37.612627 -122.384667 4 21ft 0kts
01-Oct-18 12:58 37.612627 -122.384667 4 21ft 0kts
01-Oct-18 12:59 37.612627 -122.384667 4 21ft 0kts
01-Oct-18 13:00 37.612627 -122.384667 4 21ft 0kts
01-Oct-18 13:01 37.612627 -122.384667 4 21ft 0kts
01-Oct-18 13:02 37.612627 -122.384667 4 21ft 0kts
01-Oct-18 13:03 37.612627 -122.384667 4 21ft 0kts
01-Oct-18 13:04 37.612627 -122.384667 4 21ft 0kts
01-Oct-18 13:05 37.612627 -122.384667 4 21ft 0kts
01-Oct-18 13:06 37.612493 -122.384682 4 21ft 2kts
01-Oct-18 13:07 37.611846 -122.384753 4 21ft 2kts
01-Oct-18 13:08 37.611729 -122.384765 4 21ft 0kts
01-Oct-18 13:09 37.611729 -122.384765 4 21ft 0kts
01-Oct-18 13:10 37.611438 -122.384040 123 21ft 0kts
01-Oct-18 13:11 37.609896 -122.384254 220 21ft 15kts
01-Oct-18 13:12 37.608505 -122.383885 115 21ft 0kts
01-Oct-18 13:13 37.608504 -122.383882 115 21ft 0kts
01-Oct-18 13:14 37.609180 -122.382091 28 21ft 15kts
01-Oct-18 13:15 37.636617 -122.363823 28 853ft 160kts
01-Oct-18 13:16 37.682858 -122.333263 28 2748ft 236kts
01-Oct-18 13:17 37.744088 -122.354468 289 5746ft 275kts
01-Oct-18 13:18 37.713306 -122.430390 196 9223ft 274kts
01-Oct-18 13:19 37.635825 -122.446084 189 11670ft 302kts
01-Oct-18 13:20 37.544720 -122.463951 190 13815ft 343kts
01-Oct-18 13:21 37.456569 -122.425399 129 16465ft 384kts
01-Oct-18 13:22 37.408564 -122.303580 113 18719ft 412kts
01-Oct-18 13:23 37.377272 -122.161420 110 20746ft 430kts
01-Oct-18 13:24 37.346722 -122.013497 110 22543ft 446kts
01-Oct-18 13:25 37.315554 -121.859692 109 24068ft 461kts
01-Oct-18 13:26 37.283695 -121.701438 110 25528ft 472kts
01-Oct-18 13:27 37.250826 -121.540131 110 26895ft 482kts
01-Oct-18 13:28 37.217036 -121.375777 110 28087ft 491kts
01-Oct-18 13:29 37.182460 -121.208941 110 29199ft 499kts
01-Oct-18 13:30 37.147224 -121.040225 110 30600ft 498kts
01-Oct-18 13:31 37.112013 -120.872914 110 32114ft 493kts
01-Oct-18 13:32 37.076956 -120.707581 110 33500ft 490kts
01-Oct-18 13:33 37.041830 -120.543134 111 34781ft 488kts
01-Oct-18 13:34 37.006667 -120.379709 111 36002ft 485kts
01-Oct-18 13:35 36.971661 -120.217165 111 37093ft 483kts
01-Oct-18 13:36 36.936303 -120.055347 112 38126ft 480kts
01-Oct-18 13:37 36.908513 -119.892462 93 38916ft 495kts
01-Oct-18 13:38 36.950485 -119.725478 69 38927ft 508kts
01-Oct-18 13:39 37.005615 -119.562641 70 38935ft 509kts
01-Oct-18 13:40 37.059476 -119.398636 70 38952ft 509kts
01-Oct-18 13:41 37.112707 -119.234378 70 38985ft 510kts
01-Oct-18 13:42 37.165979 -119.068809 70 39028ft 510kts
01-Oct-18 13:43 37.218607 -118.903965 70 39081ft 511kts
01-Oct-18 13:44 37.269753 -118.737386 75 39088ft 509kts
01-Oct-18 13:45 37.291938 -118.563888 88 39052ft 504kts
01-Oct-18 13:46 37.306938 -118.388394 88 39014ft 505kts
01-Oct-18 13:47 37.322931 -118.213025 87 39000ft 505kts
01-Oct-18 13:48 37.338437 -118.037313 88 39002ft 506kts
01-Oct-18 13:49 37.348323 -117.861663 98 39009ft 500kts
01-Oct-18 13:50 37.332916 -117.689188 101 39019ft 497kts
01-Oct-18 13:51 37.317348 -117.516703 102 39035ft 496kts
01-Oct-18 13:52 37.299458 -117.345256 110 39042ft 489kts
01-Oct-18 13:53 37.234526 -117.202895 135 39047ft 464kts
01-Oct-18 13:54 37.156481 -117.077072 134 37124ft 460kts
01-Oct-18 13:55 37.075033 -116.950500 142 33924ft 467kts
01-Oct-18 13:56 36.966820 -116.862512 155 30344ft 468kts
01-Oct-18 13:57 36.851335 -116.782665 155 26614ft 477kts
01-Oct-18 13:58 36.750017 -116.676649 135 24408ft 475kts
01-Oct-18 13:59 36.663648 -116.552774 134 23369ft 452kts
01-Oct-18 14:00 36.586286 -116.442331 135 22083ft 410kts
01-Oct-18 14:01 36.511962 -116.337293 134 20260ft 397kts
01-Oct-18 14:02 36.439833 -116.235669 134 19201ft 392kts
01-Oct-18 14:03 36.368301 -116.134780 134 18242ft 386kts
01-Oct-18 14:04 36.297868 -116.036074 134 17303ft 379kts
01-Oct-18 14:05 36.230296 -115.941753 134 16412ft 350kts
01-Oct-18 14:06 36.181793 -115.843421 113 16033ft 320kts
01-Oct-18 14:07 36.151595 -115.747729 114 16015ft 279kts
01-Oct-18 14:08 36.123310 -115.659923 114 16031ft 279kts
01-Oct-18 14:09 36.094622 -115.570772 114 16014ft 278kts
01-Oct-18 14:10 36.066174 -115.483134 114 16023ft 303kts
01-Oct-18 14:11 36.036189 -115.390823 112 15989ft 277kts
01-Oct-18 14:12 36.010298 -115.300940 112 15479ft 274kts
01-Oct-18 14:13 35.984464 -115.213093 112 14550ft 268kts
01-Oct-18 14:14 35.947299 -115.140152 172 13507ft 251kts
01-Oct-18 14:15 35.881810 -115.165366 202 12390ft 251kts
01-Oct-18 14:16 35.816664 -115.198372 202 11196ft 253kts
01-Oct-18 14:17 35.778649 -115.258699 291 9912ft 263kts
01-Oct-18 14:18 35.842815 -115.298025 342 8640ft 267kts
01-Oct-18 14:19 35.909931 -115.322791 342 7535ft 252kts
01-Oct-18 14:20 35.969798 -115.313882 32 6529ft 211kts
01-Oct-18 14:21 36.017787 -115.278607 26 5013ft 203kts
01-Oct-18 14:22 36.065967 -115.250247 41 3631ft 172kts
01-Oct-18 14:23 36.073555 -115.197668 93 2776ft 157kts
01-Oct-18 14:24 36.073747 -115.150163 93 2124ft 0kts
01-Oct-18 14:25 37.608505 -122.383883 115 20ft 0kts
01-Oct-18 14:26 37.608505 -122.383882 115 20ft 0kts

Navigation Log

Ident Type
Flight plan parsing failed, navigation log unavailable